createdAt,value
2023-02-02T00:01:54.241Z,6.70
2023-02-02T00:04:24.821Z,6.70
2023-02-02T00:06:54.141Z,6.70
2023-02-02T00:09:25.618Z,6.70
2023-02-02T00:11:55.542Z,6.70
2023-02-02T00:14:23.925Z,6.60
2023-02-02T00:16:54.127Z,6.60
2023-02-02T00:19:26.312Z,6.60
2023-02-02T00:21:55.277Z,6.70
2023-02-02T00:24:25.327Z,6.60
2023-02-02T00:26:56.134Z,6.60
2023-02-02T00:29:26.884Z,6.70
2023-02-02T00:31:57.189Z,6.60
2023-02-02T00:34:26.680Z,6.60
2023-02-02T00:36:55.764Z,6.60
2023-02-02T00:39:29.503Z,6.60
2023-02-02T00:41:59.282Z,6.50
2023-02-02T00:44:45.099Z,6.50
2023-02-02T00:47:14.191Z,6.50
2023-02-02T00:49:42.831Z,6.50
2023-02-02T00:52:11.361Z,6.60
2023-02-02T00:54:43.166Z,6.50
2023-02-02T00:57:15.442Z,6.50
2023-02-02T00:59:45.155Z,6.60
2023-02-02T01:02:14.243Z,6.60
2023-02-02T01:04:44.528Z,6.50
2023-02-02T01:07:13.464Z,6.50
2023-02-02T01:09:43.249Z,6.50
2023-02-02T01:12:12.940Z,6.50
2023-02-02T01:14:41.518Z,6.50
2023-02-02T01:17:14.103Z,6.50
2023-02-02T01:19:46.141Z,6.40
2023-02-02T01:22:14.957Z,6.40
2023-02-02T01:24:44.757Z,6.40
2023-02-02T01:27:13.546Z,6.40
2023-02-02T01:29:41.892Z,6.30
2023-02-02T01:32:10.726Z,6.30
2023-02-02T01:34:42.024Z,6.30
2023-02-02T01:37:12.913Z,6.30
2023-02-02T01:39:41.094Z,6.30
2023-02-02T01:42:16.703Z,6.30
2023-02-02T01:45:14.350Z,6.30
2023-02-02T01:47:45.997Z,6.30
2023-02-02T01:50:18.470Z,6.30
2023-02-02T01:52:51.678Z,6.40
2023-02-02T01:55:27.751Z,6.40
2023-02-02T01:58:03.025Z,6.40
2023-02-02T02:00:33.207Z,6.40
2023-02-02T02:03:06.278Z,6.40
2023-02-02T02:05:37.607Z,6.40
2023-02-02T02:08:15.248Z,6.40
2023-02-02T02:10:44.186Z,6.30
2023-02-02T02:13:15.090Z,6.30
2023-02-02T02:16:17.577Z,6.30
2023-02-02T02:18:59.488Z,6.30
2023-02-02T02:21:59.289Z,6.30
2023-02-02T02:25:13.947Z,6.30
2023-02-02T02:28:30.583Z,6.30
2023-02-02T02:31:47.588Z,6.30
2023-02-02T02:34:24.818Z,6.30
2023-02-02T02:37:03.058Z,6.30
2023-02-02T02:39:40.347Z,6.30
2023-02-02T02:42:20.484Z,6.30
2023-02-02T02:44:51.975Z,6.30
2023-02-02T02:47:23.704Z,6.30
2023-02-02T02:49:53.224Z,6.30
2023-02-02T02:52:22.056Z,6.30
2023-02-02T02:54:54.599Z,6.30
2023-02-02T02:57:41.314Z,6.30
2023-02-02T03:00:24.891Z,6.40
2023-02-02T03:02:59.884Z,6.30
2023-02-02T03:05:36.531Z,6.30
2023-02-02T03:08:15.468Z,6.30
2023-02-02T03:10:47.738Z,6.30
2023-02-02T03:13:18.134Z,6.30
2023-02-02T03:15:47.368Z,6.40
2023-02-02T03:18:22.025Z,6.30
2023-02-02T03:20:51.816Z,6.30
2023-02-02T03:23:21.795Z,6.30
2023-02-02T03:25:52.189Z,6.30
2023-02-02T03:28:21.620Z,6.30
2023-02-02T03:30:50.654Z,6.40
2023-02-02T03:33:20.955Z,6.30
2023-02-02T03:35:50.720Z,6.30
2023-02-02T03:38:19.231Z,6.30
2023-02-02T03:40:47.947Z,6.30
2023-02-02T03:43:21.698Z,6.30
2023-02-02T03:45:57.000Z,6.40
2023-02-02T03:48:26.979Z,6.40
2023-02-02T03:50:58.237Z,6.40
2023-02-02T03:53:27.116Z,6.40
2023-02-02T03:55:55.424Z,6.40
2023-02-02T03:58:24.020Z,6.40
2023-02-02T04:00:52.664Z,6.40
2023-02-02T04:03:22.915Z,6.40
2023-02-02T04:05:53.704Z,6.40
2023-02-02T04:08:22.573Z,6.40
2023-02-02T04:10:51.431Z,6.40
2023-02-02T04:13:19.987Z,6.40
2023-02-02T04:15:48.871Z,6.40
2023-02-02T04:18:17.976Z,6.40
2023-02-02T04:20:46.763Z,6.50
2023-02-02T04:23:18.385Z,6.40
2023-02-02T04:25:52.150Z,6.40
2023-02-02T04:28:22.876Z,6.40
2023-02-02T04:30:51.489Z,6.40
2023-02-02T04:33:20.967Z,6.40
2023-02-02T04:35:49.941Z,6.40
2023-02-02T04:38:20.703Z,6.50
2023-02-02T04:40:50.191Z,6.50
2023-02-02T04:43:20.508Z,6.50
2023-02-02T04:45:50.462Z,6.50
2023-02-02T04:48:18.951Z,6.50
2023-02-02T04:50:47.790Z,6.50
2023-02-02T04:53:16.352Z,6.40
2023-02-02T04:55:47.412Z,6.50
2023-02-02T04:58:16.004Z,6.40
2023-02-02T05:00:47.211Z,6.50
2023-02-02T05:03:15.939Z,6.50
2023-02-02T05:05:45.952Z,6.40
2023-02-02T05:08:15.021Z,6.40
2023-02-02T05:10:44.122Z,6.40
2023-02-02T05:13:14.543Z,6.40
2023-02-02T05:15:43.337Z,6.40
2023-02-02T05:18:11.947Z,6.40
2023-02-02T05:20:41.983Z,6.40
2023-02-02T05:23:11.612Z,6.40
2023-02-02T05:25:41.668Z,6.40
2023-02-02T05:28:11.444Z,6.50
2023-02-02T05:30:42.674Z,6.50
2023-02-02T05:33:11.676Z,6.50
2023-02-02T05:35:42.721Z,6.50
2023-02-02T05:38:11.382Z,6.50
2023-02-02T05:40:39.672Z,6.50
2023-02-02T05:43:08.959Z,6.50
2023-02-02T05:45:39.516Z,6.50
2023-02-02T05:48:14.154Z,6.50
2023-02-02T05:50:46.165Z,6.50
2023-02-02T05:53:18.260Z,6.60
2023-02-02T05:55:47.204Z,6.60
2023-02-02T05:58:15.908Z,6.60
2023-02-02T06:00:44.278Z,6.60
2023-02-02T06:03:14.003Z,6.60
2023-02-02T06:05:42.820Z,6.60
2023-02-02T06:08:11.247Z,6.70
2023-02-02T06:10:41.409Z,6.60
2023-02-02T06:13:09.953Z,6.60
2023-02-02T06:15:38.546Z,6.60
2023-02-02T06:18:08.545Z,6.60
2023-02-02T06:20:39.121Z,6.60
2023-02-02T06:23:07.829Z,6.60
2023-02-02T06:25:36.296Z,6.60
2023-02-02T06:28:05.024Z,6.60
2023-02-02T06:30:33.200Z,6.60
2023-02-02T06:33:03.335Z,6.60
2023-02-02T06:35:31.857Z,6.60
2023-02-02T06:38:02.162Z,6.60
2023-02-02T06:40:30.875Z,6.60
2023-02-02T06:43:02.073Z,6.60
2023-02-02T06:45:32.538Z,6.60
2023-02-02T06:48:04.260Z,6.60
2023-02-02T06:50:32.732Z,6.60
2023-02-02T06:53:05.863Z,6.60
2023-02-02T06:55:34.297Z,6.50
2023-02-02T06:58:04.247Z,6.60
2023-02-02T07:00:33.513Z,6.60
2023-02-02T07:03:02.189Z,6.50
2023-02-02T07:05:31.187Z,6.50
2023-02-02T07:08:00.104Z,6.50
2023-02-02T07:11:13.546Z,6.60
2023-02-02T07:13:19.717Z,6.60
2023-02-02T07:15:48.925Z,6.50
2023-02-02T07:18:17.495Z,6.60
2023-02-02T07:20:46.361Z,6.60
2023-02-02T07:23:16.408Z,6.70
2023-02-02T07:25:46.105Z,6.60
2023-02-02T07:28:14.675Z,6.70
2023-02-02T07:30:43.456Z,6.60
2023-02-02T07:33:12.089Z,6.60
2023-02-02T07:35:40.245Z,6.60
2023-02-02T07:38:09.289Z,6.70
2023-02-02T07:40:37.717Z,6.60
2023-02-02T07:43:11.002Z,6.60
2023-02-02T07:45:40.580Z,6.70
2023-02-02T07:48:10.370Z,6.70
2023-02-02T07:50:39.020Z,6.70
2023-02-02T07:53:08.339Z,6.80
2023-02-02T07:55:36.978Z,6.80
2023-02-02T07:58:07.809Z,6.80
2023-02-02T08:00:36.183Z,6.80
2023-02-02T08:03:06.425Z,6.90
2023-02-02T08:05:35.071Z,6.90
2023-02-02T08:08:06.005Z,6.90
2023-02-02T08:10:34.348Z,6.90
2023-02-02T08:13:02.947Z,6.90
2023-02-02T08:15:33.190Z,6.90
2023-02-02T08:18:01.567Z,7.00
2023-02-02T08:20:31.892Z,7.00
2023-02-02T08:23:00.848Z,7.00
2023-02-02T08:25:30.387Z,7.00
2023-02-02T08:28:01.483Z,7.00
2023-02-02T08:30:30.793Z,7.00
2023-02-02T08:33:03.012Z,7.00
2023-02-02T08:35:31.606Z,7.00
2023-02-02T08:38:02.993Z,7.10
2023-02-02T08:40:31.646Z,7.10
2023-02-02T08:43:00.356Z,7.10
2023-02-02T08:46:02.920Z,7.10
2023-02-02T08:48:21.448Z,7.10
2023-02-02T08:50:55.501Z,7.10
2023-02-02T08:53:24.759Z,7.10
2023-02-02T08:56:00.341Z,7.10
2023-02-02T08:58:29.246Z,7.10
2023-02-02T09:01:07.817Z,7.10
2023-02-02T09:03:40.390Z,7.10
2023-02-02T09:06:10.985Z,7.20
2023-02-02T09:08:39.854Z,7.30
2023-02-02T09:11:11.398Z,7.40
2023-02-02T09:13:41.938Z,7.40
2023-02-02T09:16:14.142Z,7.40
2023-02-02T09:18:45.302Z,7.30
2023-02-02T09:21:17.987Z,7.40
2023-02-02T09:23:50.164Z,7.40
2023-02-02T09:26:20.298Z,7.40
2023-02-02T09:28:51.011Z,7.40
2023-02-02T09:31:22.823Z,7.40
2023-02-02T09:33:53.901Z,7.40
2023-02-02T09:36:29.149Z,7.50
2023-02-02T09:38:57.615Z,7.60
2023-02-02T09:42:14.062Z,7.60
2023-02-02T09:44:58.517Z,7.60
2023-02-02T09:47:36.819Z,7.60
2023-02-02T09:50:17.776Z,7.60
2023-02-02T09:52:50.762Z,7.50
2023-02-02T09:55:29.057Z,7.60
2023-02-02T09:58:11.178Z,7.60
2023-02-02T10:00:44.932Z,7.60
2023-02-02T10:03:20.962Z,7.60
2023-02-02T10:05:57.203Z,7.50
2023-02-02T10:08:34.998Z,7.50
2023-02-02T10:11:17.292Z,7.50
2023-02-02T10:13:47.544Z,7.50
2023-02-02T10:16:20.054Z,7.50
2023-02-02T10:18:52.941Z,7.50
2023-02-02T10:21:30.369Z,7.60
2023-02-02T10:24:06.395Z,7.60
2023-02-02T10:26:40.384Z,7.60
2023-02-02T10:29:17.455Z,7.70
2023-02-02T10:32:00.528Z,7.70
2023-02-02T10:34:33.929Z,7.80
2023-02-02T10:37:19.321Z,7.90
2023-02-02T10:40:06.125Z,7.90
2023-02-02T10:42:45.688Z,7.90
2023-02-02T10:45:19.168Z,8.00
2023-02-02T10:47:48.275Z,8.00
2023-02-02T10:50:20.117Z,8.10
2023-02-02T10:52:54.283Z,8.20
2023-02-02T10:55:29.322Z,8.30
2023-02-02T10:58:07.943Z,8.40
2023-02-02T11:00:43.692Z,8.50
2023-02-02T11:03:15.093Z,8.50
2023-02-02T11:06:00.866Z,8.40
2023-02-02T11:08:35.637Z,8.30
2023-02-02T11:11:14.212Z,8.30
2023-02-02T11:13:46.538Z,8.30
2023-02-02T11:16:35.777Z,8.10
2023-02-02T11:19:25.041Z,8.20
2023-02-02T11:21:56.249Z,8.20
2023-02-02T11:24:29.968Z,8.20
2023-02-02T11:27:03.480Z,8.20
2023-02-02T11:29:37.434Z,8.30
2023-02-02T11:32:27.816Z,8.20
2023-02-02T11:35:31.780Z,8.20
2023-02-02T11:38:10.477Z,8.30
2023-02-02T11:40:43.598Z,8.30
2023-02-02T11:43:21.227Z,8.20
2023-02-02T11:46:02.315Z,8.10
2023-02-02T11:48:36.920Z,8.20
2023-02-02T11:51:07.796Z,8.10
2023-02-02T11:53:41.164Z,8.10
2023-02-02T11:56:20.695Z,8.10
2023-02-02T11:58:51.573Z,8.20
2023-02-02T12:01:30.625Z,8.20
2023-02-02T12:04:01.923Z,8.20
2023-02-02T12:06:36.730Z,8.30
2023-02-02T12:09:14.115Z,8.40
2023-02-02T12:11:55.260Z,8.50
2023-02-02T12:14:36.856Z,8.60
2023-02-02T12:17:15.711Z,8.70
2023-02-02T12:19:58.635Z,8.70
2023-02-02T12:22:54.828Z,8.80
2023-02-02T12:25:43.547Z,8.80
2023-02-02T12:28:25.583Z,8.80
2023-02-02T12:31:01.456Z,8.80
2023-02-02T12:33:39.425Z,8.90
2023-02-02T12:36:24.503Z,9.00
2023-02-02T12:39:22.315Z,9.00
2023-02-02T12:42:19.373Z,9.00
2023-02-02T12:45:13.785Z,9.00
2023-02-02T12:47:50.809Z,9.00
2023-02-02T12:50:30.984Z,8.90
2023-02-02T12:53:21.483Z,8.90
2023-02-02T12:55:59.796Z,8.90
2023-02-02T12:58:37.161Z,8.90
2023-02-02T13:01:19.014Z,8.90
2023-02-02T13:04:11.093Z,8.90
2023-02-02T13:06:56.415Z,9.00
2023-02-02T13:09:31.509Z,9.00
2023-02-02T13:12:04.449Z,9.00
2023-02-02T13:14:37.076Z,9.00
2023-02-02T13:17:14.115Z,9.00
2023-02-02T13:19:46.219Z,9.00
2023-02-02T13:22:20.904Z,9.00
2023-02-02T13:24:52.504Z,8.90
2023-02-02T13:27:26.943Z,8.90
2023-02-02T13:30:01.608Z,8.90
2023-02-02T13:32:34.757Z,8.80
2023-02-02T13:35:16.193Z,8.70
2023-02-02T13:37:50.554Z,8.80
2023-02-02T13:40:29.387Z,8.70
2023-02-02T13:43:06.818Z,8.80
2023-02-02T13:45:49.451Z,8.70
2023-02-02T13:48:40.343Z,8.70
2023-02-02T13:51:46.780Z,8.70
2023-02-02T13:54:51.030Z,8.60
2023-02-02T13:57:42.904Z,8.60
2023-02-02T14:00:17.289Z,8.50
2023-02-02T14:02:51.371Z,8.50
2023-02-02T14:05:32.883Z,8.50
2023-02-02T14:08:06.689Z,8.40
2023-02-02T14:10:39.304Z,8.40
2023-02-02T14:13:36.753Z,8.40
2023-02-02T14:16:08.302Z,8.30
2023-02-02T14:18:57.777Z,8.30
2023-02-02T14:22:05.447Z,8.30
2023-02-02T14:24:46.733Z,8.20
2023-02-02T14:28:03.369Z,8.10
2023-02-02T14:30:36.140Z,8.00
2023-02-02T14:33:28.208Z,8.00
2023-02-02T14:36:04.411Z,8.00
2023-02-02T14:39:02.673Z,8.00
2023-02-02T14:42:08.775Z,8.00
2023-02-02T14:44:38.581Z,7.90
2023-02-02T14:47:49.889Z,7.90
2023-02-02T14:50:30.480Z,7.80
2023-02-02T14:53:02.891Z,7.80
2023-02-02T14:55:33.553Z,7.80
2023-02-02T14:58:04.967Z,7.80
2023-02-02T15:00:35.765Z,7.80
2023-02-02T15:03:38.588Z,7.80
2023-02-02T15:06:26.440Z,7.70
2023-02-02T15:09:45.289Z,7.70
2023-02-02T15:12:34.698Z,7.70
2023-02-02T15:15:11.814Z,7.70
2023-02-02T15:17:56.047Z,7.70
2023-02-02T15:20:30.639Z,7.70
2023-02-02T15:23:04.604Z,7.60
2023-02-02T15:25:38.435Z,7.70
2023-02-02T15:28:19.310Z,7.60
2023-02-02T15:30:52.553Z,7.60
2023-02-02T15:33:30.651Z,7.60
2023-02-02T15:36:04.813Z,7.60
2023-02-02T15:38:38.244Z,7.60
2023-02-02T15:41:11.136Z,7.60
2023-02-02T15:43:41.775Z,7.60
2023-02-02T15:46:15.501Z,7.60
2023-02-02T15:48:44.246Z,7.60
2023-02-02T15:51:22.679Z,7.60
2023-02-02T15:53:52.910Z,7.60
2023-02-02T15:56:31.955Z,7.50
2023-02-02T15:59:02.164Z,7.50
2023-02-02T16:01:34.837Z,7.50
2023-02-02T16:04:17.119Z,7.50
2023-02-02T16:06:46.641Z,7.50
2023-02-02T16:09:23.993Z,7.50
2023-02-02T16:11:53.122Z,7.50
2023-02-02T16:14:24.146Z,7.50
2023-02-02T16:16:52.729Z,7.50
2023-02-02T16:19:24.414Z,7.50
2023-02-02T16:21:57.292Z,7.50
2023-02-02T16:24:29.084Z,7.50
2023-02-02T16:27:01.011Z,7.50
2023-02-02T16:29:31.323Z,7.50
2023-02-02T16:32:00.069Z,7.50
2023-02-02T16:34:52.757Z,7.50
2023-02-02T16:37:25.550Z,7.40
2023-02-02T16:39:56.335Z,7.40
2023-02-02T16:42:29.032Z,7.40
2023-02-02T16:45:00.517Z,7.40
2023-02-02T16:47:36.266Z,7.40
2023-02-02T16:50:27.193Z,7.40
2023-02-02T16:52:58.432Z,7.40
2023-02-02T16:55:47.422Z,7.40
2023-02-02T16:58:20.721Z,7.40
2023-02-02T17:01:14.420Z,7.30
2023-02-02T17:03:50.265Z,7.30
2023-02-02T17:06:19.709Z,7.30
2023-02-02T17:08:48.170Z,7.30
2023-02-02T17:11:45.028Z,7.10
2023-02-02T17:14:21.184Z,7.00
2023-02-02T17:16:51.770Z,7.00
2023-02-02T17:19:21.984Z,7.00
2023-02-02T17:21:53.705Z,7.00
2023-02-02T17:24:24.448Z,7.10
2023-02-02T17:26:53.648Z,7.10
2023-02-02T17:29:23.535Z,7.10
2023-02-02T17:31:53.811Z,7.10
2023-02-02T17:34:22.570Z,7.20
2023-02-02T17:36:51.283Z,7.20
2023-02-02T17:39:20.295Z,7.20
2023-02-02T17:41:50.251Z,7.20
2023-02-02T17:44:18.682Z,7.20
2023-02-02T17:46:47.243Z,7.10
2023-02-02T17:49:17.435Z,7.20
2023-02-02T17:51:48.830Z,7.20
2023-02-02T17:54:18.564Z,7.20
2023-02-02T17:56:47.798Z,7.20
2023-02-02T17:59:16.060Z,7.20
2023-02-02T18:01:45.807Z,7.20
2023-02-02T18:04:18.292Z,7.20
2023-02-02T18:06:46.925Z,7.20
2023-02-02T18:09:15.273Z,7.20
2023-02-02T18:11:45.654Z,7.20
2023-02-02T18:14:14.335Z,7.20
2023-02-02T18:16:42.986Z,7.20
2023-02-02T18:19:13.407Z,7.20
2023-02-02T18:21:43.325Z,7.20
2023-02-02T18:24:16.436Z,7.20
2023-02-02T18:26:45.164Z,7.10
2023-02-02T18:29:16.594Z,7.10
2023-02-02T18:31:45.238Z,7.10
2023-02-02T18:34:15.807Z,7.10
2023-02-02T18:36:46.726Z,7.10
2023-02-02T18:39:17.602Z,7.10
2023-02-02T18:41:50.150Z,7.10
2023-02-02T18:44:19.075Z,7.10
2023-02-02T18:46:47.863Z,7.20
2023-02-02T18:49:16.206Z,7.20
2023-02-02T18:51:48.983Z,7.20
2023-02-02T18:54:17.570Z,7.20
2023-02-02T18:56:45.813Z,7.20
2023-02-02T18:59:16.918Z,7.20
2023-02-02T19:01:47.703Z,7.20
2023-02-02T19:04:16.451Z,7.20
2023-02-02T19:07:05.701Z,7.20
2023-02-02T19:09:34.854Z,7.20
2023-02-02T19:12:04.037Z,7.30
2023-02-02T19:14:37.551Z,7.20
2023-02-02T19:17:20.711Z,7.20
2023-02-02T19:19:50.574Z,7.30
2023-02-02T19:22:24.365Z,7.20
2023-02-02T19:24:53.060Z,7.20
2023-02-02T19:27:23.401Z,7.20
2023-02-02T19:29:55.814Z,7.20
2023-02-02T19:32:26.859Z,7.20
2023-02-02T19:34:57.523Z,7.30
2023-02-02T19:37:29.538Z,7.20
2023-02-02T19:40:18.985Z,7.30
2023-02-02T19:42:51.321Z,7.30
2023-02-02T19:45:25.166Z,7.30
2023-02-02T19:47:57.261Z,7.30
2023-02-02T19:50:29.556Z,7.20
2023-02-02T19:53:02.342Z,7.20
2023-02-02T19:55:36.538Z,7.20
2023-02-02T19:58:19.009Z,7.20
2023-02-02T20:01:38.181Z,7.20
2023-02-02T20:04:16.623Z,7.20
2023-02-02T20:06:58.062Z,7.20
2023-02-02T20:09:34.590Z,7.20
2023-02-02T20:12:19.896Z,7.20
2023-02-02T20:14:49.509Z,7.10
2023-02-02T20:17:27.576Z,7.10
2023-02-02T20:19:56.972Z,7.10
2023-02-02T20:22:29.392Z,7.10
2023-02-02T20:25:02.265Z,7.10
2023-02-02T20:27:35.115Z,7.10
2023-02-02T20:30:19.544Z,7.10
2023-02-02T20:32:50.075Z,7.10
2023-02-02T20:35:26.082Z,7.10
2023-02-02T20:37:56.033Z,7.10
2023-02-02T20:40:28.738Z,7.10
2023-02-02T20:42:58.282Z,7.10
2023-02-02T20:45:27.642Z,7.10
2023-02-02T20:47:56.375Z,7.10
2023-02-02T20:50:26.025Z,7.10
2023-02-02T20:52:55.875Z,7.10
2023-02-02T20:55:26.065Z,7.20
2023-02-02T20:57:54.893Z,7.20
2023-02-02T21:00:29.123Z,7.20
2023-02-02T21:03:00.406Z,7.10
2023-02-02T21:05:28.842Z,7.10
2023-02-02T21:07:57.566Z,7.10
2023-02-02T21:10:28.272Z,7.10
2023-02-02T21:12:58.380Z,7.10
2023-02-02T21:15:27.207Z,7.10
2023-02-02T21:17:56.532Z,7.10
2023-02-02T21:20:26.571Z,7.10
2023-02-02T21:22:56.718Z,7.10
2023-02-02T21:25:26.892Z,7.10
2023-02-02T21:28:00.308Z,7.10
2023-02-02T21:30:29.820Z,7.10
2023-02-02T21:32:59.850Z,7.10
2023-02-02T21:35:30.496Z,7.10
2023-02-02T21:38:02.868Z,7.10
2023-02-02T21:40:34.721Z,7.10
2023-02-02T21:43:14.964Z,7.10
2023-02-02T21:45:45.273Z,7.10
2023-02-02T21:48:35.803Z,7.00
2023-02-02T21:51:24.092Z,7.10
2023-02-02T21:53:53.337Z,7.10
2023-02-02T21:56:40.652Z,7.10
2023-02-02T21:59:14.785Z,7.10
2023-02-02T22:01:43.383Z,7.10
2023-02-02T22:04:22.806Z,7.10
2023-02-02T22:06:53.389Z,7.10
2023-02-02T22:09:24.575Z,7.10
2023-02-02T22:11:59.040Z,7.10
2023-02-02T22:14:34.108Z,7.10
2023-02-02T22:17:02.973Z,7.10
2023-02-02T22:19:36.393Z,7.10
2023-02-02T22:22:27.767Z,7.10
2023-02-02T22:25:00.506Z,7.10
2023-02-02T22:27:41.652Z,7.10
2023-02-02T22:30:21.597Z,7.10
2023-02-02T22:32:50.241Z,7.10
2023-02-02T22:35:18.719Z,7.20
2023-02-02T22:37:47.495Z,7.20
2023-02-02T22:40:16.758Z,7.20
2023-02-02T22:42:46.789Z,7.20
2023-02-02T22:45:15.461Z,7.20
2023-02-02T22:47:47.261Z,7.20
2023-02-02T22:50:16.297Z,7.20
2023-02-02T22:52:47.057Z,7.20
2023-02-02T22:55:17.484Z,7.20
2023-02-02T22:57:48.740Z,7.20
2023-02-02T23:00:19.477Z,7.20
2023-02-02T23:02:47.839Z,7.20
2023-02-02T23:05:19.300Z,7.20
2023-02-02T23:07:48.043Z,7.20
2023-02-02T23:10:19.172Z,7.20
2023-02-02T23:12:50.059Z,7.20
2023-02-02T23:15:19.966Z,7.20
2023-02-02T23:17:49.404Z,7.20
2023-02-02T23:20:20.865Z,7.20
2023-02-02T23:22:49.416Z,7.30
2023-02-02T23:25:21.980Z,7.30
2023-02-02T23:27:53.317Z,7.30
2023-02-02T23:30:24.655Z,7.20
2023-02-02T23:32:53.772Z,7.30
2023-02-02T23:35:24.085Z,7.20
2023-02-02T23:37:52.604Z,7.30
2023-02-02T23:40:21.371Z,7.30
2023-02-02T23:42:51.569Z,7.30
2023-02-02T23:45:20.432Z,7.30
2023-02-02T23:47:49.592Z,7.30
2023-02-02T23:50:18.156Z,7.30
2023-02-02T23:52:46.928Z,7.30
2023-02-02T23:55:16.626Z,7.30
2023-02-02T23:57:45.238Z,7.30
